Ocena wątku:
  • 0 głosów - średnia: 0
  • 1
  • 2
  • 3
  • 4
  • 5
EPKK/KRK - Kraków im. Jana Pawła II
#1
11.01.2016r - 06:30

METAR: EPKK 110530Z VRB01KT 0250 R25/0800N FZFG BKN000 OVC002 M01/M01 Q0998 R25/71//95

Widzialność pozioma 250m na pasie 800m, marznąca mgła i 200 stóp podstawy chmury i -1 na termometrze. 
Pozdrawiamy                                                                                                               Kontakt: jaroslaw.turala@wp.pl
Ekipa Forum

[Obrazek: Sygnatura2_ver_2.png]

Odpowiedz
#2
31.03.2016r - 06:30

METAR: EPKK 310430Z VRB01KT 0250 R25/0400N FG SCT020 BKN050 07/07 Q1013

Lokalizacja:EPKK Kraków Balice
Czas:04:30 UTC
Średni kierunek wiatru:zmienny
Średnia prędkość wiatru:1 węzłów
Widzialność:250 metrów
RVR dla progu:25
RVR:400 m, bez zmian w ciągu ostatnich 10 minut
Zjawisko:mgła
Pierwsza warstwa chmur:3/8 do 4/8, wysokość podstawy 2000 FT
Druga warstwa chmur:5/8 do 7/8, wysokość podstawy 5000 FT
Temperatura powietrza:7 °C
Temperatura punktu rosy:7 °C
Ciśnienie QNH:1013 hPa
Pozdrawiamy                                                                                                               Kontakt: jaroslaw.turala@wp.pl
Ekipa Forum

[Obrazek: Sygnatura2_ver_2.png]

Odpowiedz
#3
8.09.2016

METAR EPKK 080430Z VRB01KT 0100 R25/0300N FG VV000 14/14 Q1019 =

Lokalizacja: EPKK Kraków Balice
Czas: 04:30 UTC
Średni kierunek wiatru: zmienny
Średnia prędkość wiatru: 1 węzłów
Widzialność: 100 metrów
RVR: 300 m, bez zmian w ciągu ostatnich 10 minut
Zjawisko: mgła
Widzialność pionowa: 0 FT
Temperatura powietrza: 14 °C
Temperatura punktu rosy: 14 °C
Ciśnienie QNH: 1019 hPa

Żaden samolot nie ląduje.
Pozdrawiamy                                                                                                               Kontakt: jaroslaw.turala@wp.pl
Ekipa Forum

[Obrazek: Sygnatura2_ver_2.png]

Odpowiedz
#4
15.11.2016 - 07:00

METAR EPKK 150600Z 23001KT 0300 R25/0500D FZFG FEW001 M08/M09 Q1031 =

Lokalizacja:EPKK Kraków Balice
Czas:06:00 UTC
Średni kierunek wiatru:230 °
Średnia prędkość wiatru:1 węzłów
Widzialność:300 metrów
RVR dla progu:25
RVR:500 m, pogorszenie w ciągu ostatnich 10 minut
Zjawisko:mgła przy ujemnej temperaturze powietrza
Pierwsza warstwa chmur:1/8 do 2/8, wysokość podstawy 100 FT
Temperatura powietrza:-8 °C
Temperatura punktu rosy:-9 °C
Ciśnienie QNH:1031 hPa
Pozdrawiamy                                                                                                               Kontakt: jaroslaw.turala@wp.pl
Ekipa Forum

[Obrazek: Sygnatura2_ver_2.png]

Odpowiedz
#5
19.12.2016 - 08:00

METAR EPKK 190700Z VRB01KT 0300 R25/0550N FZFG BKN001 BKN042 M00/M00 Q1033 

Lokalizacja:EPKK Kraków Balice
Czas:07:00 UTC
Średni kierunek wiatru:zmienny
Średnia prędkość wiatru:1 węzłów
Widzialność:300 metrów
RVR dla progu:25
RVR:550 m, bez zmian w ciągu ostatnich 10 minut
Zjawisko:mgła przy ujemnej temperaturze powietrza
Pierwsza warstwa chmur:5/8 do 7/8, wysokość podstawy 100 FT
Druga warstwa chmur:5/8 do 7/8, wysokość podstawy 4200 FT
Temperatura powietrza:0 °C
Temperatura punktu rosy:0 °C
Ciśnienie QNH:1033 hPa
Pozdrawiamy                                                                                                               Kontakt: jaroslaw.turala@wp.pl
Ekipa Forum

[Obrazek: Sygnatura2_ver_2.png]

Odpowiedz
#6
21.10.2017r - 08:00 cest

METAR EPKK 210600Z 22005KT 180V240 0200 R25/0175N FG VV001 09/09 Q1016 =

Lokalizacja:EPKK Kraków Balice
Czas:06:00 UTC
Średni kierunek wiatru:220 °
Średnia prędkość wiatru:5 węzłów
Kierunek wiatru zmienia się od:180 °
Kierunek wiatru zmienia się do:240 °
Widzialność:200 metrów
RVR dla progu:25
RVR:175 m, bez zmian w ciągu ostatnich 10 minut
Zjawisko:mgła
Widzialność pionowa:100 FT
Temperatura powietrza:9 °C
Temperatura punktu rosy:9 °C
Ciśnienie QNH:1016 hPa
Pozdrawiamy                                                                                                               Kontakt: jaroslaw.turala@wp.pl
Ekipa Forum

[Obrazek: Sygnatura2_ver_2.png]

Odpowiedz


Skocz do:


Użytkownicy przeglądający ten wątek: 1 gości